Time;durP1;ratioP1;P1;durP2;ratioP2;P2;SDS_P1;SDS_P2;PMS_P1;PMS_P2;Temp;Humidity;BMP_temperature;BMP_pressure;BME280_temperature;BME280_humidity;BME280_pressure;Samples;Min_cycle;Max_cycle;Signal;HPM_P1;HPM_P2
2021/12/11 00:01:16;;;;;;;92.72;15.25;;;-1.60;99.90;;;;;;5030890;28;20037;-63
2021/12/11 00:03:46;;;;;;;25.27;12.63;;;-1.60;99.90;;;;;;5030715;28;20041;-63
2021/12/11 00:06:18;;;;;;;149.63;14.40;;;-1.70;99.90;;;;;;5030731;28;20041;-63
2021/12/11 00:08:48;;;;;;;99.43;13.80;;;-1.70;99.90;;;;;;5030407;28;20033;-63
2021/12/11 00:11:22;;;;;;;32.88;15.63;;;-1.70;99.90;;;;;;5030157;28;20519;-63
2021/12/11 00:13:51;;;;;;;33.40;15.15;;;-1.60;99.90;;;;;;5030606;28;20037;-63
2021/12/11 00:16:22;;;;;;;32.40;14.77;;;-1.60;99.90;;;;;;5030500;28;20068;-63
2021/12/11 00:18:53;;;;;;;79.45;15.35;;;-1.60;99.90;;;;;;5030513;28;20124;-63
2021/12/11 00:21:21;;;;;;;55.40;13.98;;;-1.60;99.90;;;;;;5030128;28;20127;-63
2021/12/11 00:23:56;;;;;;;25.95;12.90;;;-1.60;99.90;;;;;;5012473;28;20049;-63
2021/12/11 00:26:30;;;;;;;31.88;13.90;;;-1.60;99.90;;;;;;5030458;28;20038;-63
2021/12/11 00:28:57;;;;;;;28.27;13.18;;;-1.60;99.90;;;;;;5030165;28;20116;-63
2021/12/11 00:31:23;;;;;;;38.10;12.35;;;-1.60;99.90;;;;;;5030124;28;20046;-63
2021/12/11 00:33:51;;;;;;;333.20;23.58;;;-1.60;99.90;;;;;;5030037;28;20636;-63
2021/12/11 00:36:20;;;;;;;115.93;14.07;;;-1.60;99.90;;;;;;5029980;28;20037;-63
2021/12/11 00:38:49;;;;;;;75.72;14.55;;;-1.60;99.90;;;;;;5012354;28;20120;-63
2021/12/11 00:41:18;;;;;;;28.90;14.05;;;-1.50;99.90;;;;;;5030076;28;20038;-63
2021/12/11 00:43:46;;;;;;;29.52;14.45;;;-1.50;99.90;;;;;;5029909;28;20040;-63
2021/12/11 00:46:17;;;;;;;34.85;15.18;;;-1.40;99.90;;;;;;5030156;28;20033;-63
2021/12/11 00:48:43;;;;;;;32.58;15.52;;;-1.40;99.90;;;;;;5029924;28;20051;-63
2021/12/11 00:51:21;;;;;;;27.33;14.07;;;-1.40;99.90;;;;;;5029793;28;20423;-63
2021/12/11 00:53:54;;;;;;;29.33;14.25;;;-1.50;99.90;;;;;;5029726;28;20116;-63
2021/12/11 00:56:39;;;;;;;33.78;14.70;;;-1.50;99.90;;;;;;5030175;28;20044;-63
2021/12/11 00:59:08;;;;;;;36.63;14.00;;;-1.50;99.90;;;;;;5029759;28;20056;-63
2021/12/11 01:01:39;;;;;;;28.27;13.60;;;-1.50;99.90;;;;;;5029878;28;20045;-63
2021/12/11 01:04:41;;;;;;;30.77;14.57;;;-1.60;99.90;;;;;;5029733;28;20047;-63
2021/12/11 01:07:20;;;;;;;37.60;14.23;;;-1.70;99.90;;;;;;5029818;28;20038;-63
2021/12/11 01:10:00;;;;;;;27.92;13.25;;;-1.70;99.90;;;;;;5029751;28;20041;-63
2021/12/11 01:12:42;;;;;;;29.75;13.73;;;-1.70;99.90;;;;;;5029400;28;20041;-63
2021/12/11 01:15:24;;;;;;;29.48;12.55;;;-1.80;99.90;;;;;;5029646;28;20038;-63
2021/12/11 01:18:02;;;;;;;;;;;-1.80;99.90;;;;;;5030234;28;20053;-63
2021/12/11 01:20:37;;;;;;;31.70;13.45;;;-1.80;99.90;;;;;;5029858;28;19924;-63
2021/12/11 01:23:17;;;;;;;36.28;15.65;;;-1.80;99.90;;;;;;5029571;28;20044;-63
2021/12/11 01:25:43;;;;;;;30.08;13.73;;;-1.80;99.90;;;;;;5029678;28;20033;-63
2021/12/11 01:28:09;;;;;;;31.67;14.98;;;-1.80;99.90;;;;;;5029357;28;20467;-63
2021/12/11 01:30:39;;;;;;;35.83;15.05;;;-1.80;99.90;;;;;;5029679;28;20042;-63
2021/12/11 01:33:07;;;;;;;47.03;14.20;;;-1.80;99.90;;;;;;5029473;28;20040;-63
2021/12/11 01:35:33;;;;;;;36.97;11.88;;;-1.80;99.90;;;;;;5029489;28;20777;-63
2021/12/11 01:38:05;;;;;;;79.63;14.35;;;-1.80;99.90;;;;;;5029435;28;20125;-63
2021/12/11 01:40:31;;;;;;;33.08;13.68;;;-1.80;99.90;;;;;;5029193;28;20595;-63
2021/12/11 01:43:02;;;;;;;30.13;13.50;;;-1.80;99.90;;;;;;5029382;28;20048;-63
2021/12/11 01:45:29;;;;;;;39.45;17.35;;;-1.80;99.90;;;;;;5029708;28;20051;-63
2021/12/11 01:47:55;;;;;;;36.75;16.42;;;-1.70;99.90;;;;;;5030936;28;20076;-63
2021/12/11 01:50:54;;;;;;;29.67;14.20;;;-1.80;99.90;;;;;;5032971;28;20045;-64
2021/12/11 01:53:24;;;;;;;31.60;15.48;;;-1.80;99.90;;;;;;5024987;28;20792;-63
2021/12/11 01:56:00;;;;;;;35.65;17.25;;;-1.80;99.90;;;;;;5033425;28;20038;-63
2021/12/11 01:58:34;;;;;;;31.83;15.80;;;-1.80;99.90;;;;;;5033131;28;20048;-63
2021/12/11 02:01:06;;;;;;;30.45;15.95;;;-1.80;99.90;;;;;;5032942;28;20072;-63
2021/12/11 02:03:34;;;;;;;30.42;14.80;;;-1.80;99.90;;;;;;5032512;28;20064;-63
2021/12/11 02:06:00;;;;;;;31.10;15.20;;;-1.80;99.90;;;;;;5033190;28;20037;-63
2021/12/11 02:08:32;;;;;;;34.72;14.85;;;-1.90;99.90;;;;;;5033066;28;20033;-63
2021/12/11 02:11:01;;;;;;;33.08;14.85;;;-2.00;99.90;;;;;;5032596;28;20492;-63
2021/12/11 02:13:52;;;;;;;28.40;13.45;;;-2.10;99.90;;;;;;5032590;28;20040;-63
2021/12/11 02:16:23;;;;;;;29.17;12.80;;;-2.10;99.90;;;;;;5032999;28;20046;-63
2021/12/11 02:18:54;;;;;;;32.90;13.55;;;-2.20;99.90;;;;;;5032727;28;20504;-63
2021/12/11 02:21:33;;;;;;;27.85;12.68;;;-2.30;99.90;;;;;;5032696;28;20034;-63
2021/12/11 02:24:04;;;;;;;27.52;13.95;;;-2.30;99.90;;;;;;5032442;28;20069;-63
2021/12/11 02:26:33;;;;;;;34.45;17.67;;;-2.30;99.90;;;;;;5032233;28;20033;-63
2021/12/11 02:29:20;;;;;;;37.78;16.35;;;-2.30;99.90;;;;;;5032464;28;20513;-63
2021/12/11 02:31:57;;;;;;;40.67;17.38;;;-2.30;99.90;;;;;;5032366;28;20052;-63
2021/12/11 02:34:32;;;;;;;41.30;18.08;;;-2.30;99.90;;;;;;5032432;28;20099;-63
2021/12/11 02:37:19;;;;;;;36.72;17.80;;;-2.20;99.90;;;;;;5032094;28;20065;-63
2021/12/11 02:39:54;;;;;;;37.33;16.50;;;-2.20;99.90;;;;;;5032454;28;20045;-63
2021/12/11 02:42:31;;;;;;;35.15;17.58;;;-2.20;99.90;;;;;;5031918;28;20515;-63
2021/12/11 02:45:05;;;;;;;36.45;15.95;;;-2.20;99.90;;;;;;5032119;28;20037;-63
2021/12/11 02:47:38;;;;;;;40.20;13.32;;;-2.10;99.90;;;;;;5032436;28;20099;-63
2021/12/11 02:50:12;;;;;;;31.33;13.95;;;-2.10;99.90;;;;;;5032353;28;20556;-63
2021/12/11 02:52:55;;;;;;;33.17;15.50;;;-2.10;99.90;;;;;;5031749;28;20091;-63
2021/12/11 02:55:38;;;;;;;35.95;15.65;;;-2.10;99.90;;;;;;5032027;28;20095;-63
2021/12/11 02:58:09;;;;;;;32.70;15.95;;;-2.10;99.90;;;;;;5031801;28;20038;-63
2021/12/11 03:00:43;;;;;;;34.40;16.25;;;-2.10;99.90;;;;;;5032097;28;20034;-63
2021/12/11 03:03:11;;;;;;;33.85;16.25;;;-2.10;99.90;;;;;;5031655;28;20073;-63
2021/12/11 03:05:52;;;;;;;36.20;16.17;;;-2.10;99.90;;;;;;5031822;28;20041;-63
2021/12/11 03:08:20;;;;;;;37.65;16.48;;;-2.10;99.90;;;;;;5031742;28;20119;-63
2021/12/11 03:10:51;;;;;;;41.90;16.58;;;-2.10;99.90;;;;;;5031791;28;20033;-63
2021/12/11 03:13:16;;;;;;;33.35;15.85;;;-2.10;99.90;;;;;;5031603;28;20084;-63
2021/12/11 03:15:42;;;;;;;40.40;17.77;;;-2.10;99.90;;;;;;5031629;28;20042;-63
2021/12/11 03:18:08;;;;;;;38.08;17.20;;;-2.10;99.90;;;;;;5031654;28;20033;-63
2021/12/11 03:20:37;;;;;;;41.10;18.20;;;-2.10;99.90;;;;;;5031414;28;20045;-63
2021/12/11 03:23:04;;;;;;;40.55;19.35;;;-2.10;99.90;;;;;;5031563;28;20045;-63
2021/12/11 03:25:31;;;;;;;35.67;16.70;;;-2.10;99.90;;;;;;5031538;28;20103;-63
2021/12/11 03:27:57;;;;;;;39.17;17.38;;;-2.10;99.90;;;;;;5031424;28;20495;-64
2021/12/11 03:30:28;;;;;;;38.28;17.50;;;-2.10;99.90;;;;;;5031237;28;20041;-63
2021/12/11 03:32:57;;;;;;;39.42;19.10;;;-2.10;99.90;;;;;;5031229;28;20034;-63
2021/12/11 03:35:25;;;;;;;43.30;19.35;;;-2.20;99.90;;;;;;5031347;28;20049;-63
2021/12/11 03:37:51;;;;;;;41.25;17.88;;;-2.10;99.90;;;;;;5031248;28;20037;-63
2021/12/11 03:40:18;;;;;;;42.05;18.50;;;-2.10;99.90;;;;;;5031263;28;20037;-63
2021/12/11 03:42:46;;;;;;;39.05;18.83;;;-2.10;99.90;;;;;;5031107;28;20072;-63
2021/12/11 03:45:19;;;;;;;36.45;17.80;;;-2.10;99.90;;;;;;5031083;28;20128;-63
2021/12/11 03:47:49;;;;;;;44.47;18.35;;;-2.20;99.90;;;;;;5030910;28;20589;-63
2021/12/11 03:50:17;;;;;;;35.28;17.67;;;-2.20;99.90;;;;;;5031006;28;20133;-63
2021/12/11 03:52:44;;;;;;;41.15;17.30;;;-2.20;99.90;;;;;;5030939;28;20099;-63
2021/12/11 03:55:12;;;;;;;44.15;18.65;;;-2.30;99.90;;;;;;5030897;28;20554;-63
2021/12/11 03:57:38;;;;;;;46.58;19.92;;;-2.30;99.90;;;;;;5030732;28;20050;-63
2021/12/11 04:00:09;;;;;;;42.53;19.15;;;-2.20;99.90;;;;;;5030688;28;20067;-63
2021/12/11 04:02:35;;;;;;;45.15;18.08;;;-2.10;99.90;;;;;;5030684;28;20085;-63
2021/12/11 04:05:04;;;;;;;36.70;17.83;;;-2.20;99.90;;;;;;5030847;28;20304;-63
2021/12/11 04:07:36;;;;;;;40.67;17.88;;;-2.30;99.90;;;;;;5030726;28;20046;-63
2021/12/11 04:10:04;;;;;;;34.38;16.63;;;-2.40;99.90;;;;;;5029828;28;20041;-63
2021/12/11 04:12:30;;;;;;;36.50;17.98;;;-2.40;99.90;;;;;;5030348;28;20040;-63
2021/12/11 04:14:55;;;;;;;37.05;17.15;;;-2.50;99.90;;;;;;5030345;28;20560;-63
2021/12/11 04:17:24;;;;;;;36.00;15.98;;;-2.60;99.90;;;;;;5030417;28;20128;-63
2021/12/11 04:19:54;;;;;;;36.85;17.20;;;-2.60;99.90;;;;;;5030533;28;20040;-63
2021/12/11 04:22:20;;;;;;;31.17;15.32;;;-2.70;99.90;;;;;;5030315;28;20045;-63
2021/12/11 04:24:47;;;;;;;31.33;16.35;;;-2.70;99.90;;;;;;5030508;28;20046;-63
2021/12/11 04:27:18;;;;;;;30.98;13.18;;;-2.80;99.90;;;;;;5029962;28;20518;-63
2021/12/11 04:29:47;;;;;;;25.48;13.20;;;-2.90;99.90;;;;;;5012496;28;20124;-63
2021/12/11 04:32:13;;;;;;;29.35;13.73;;;-3.00;99.90;;;;;;5029968;28;20041;-63
2021/12/11 04:34:39;;;;;;;41.58;18.23;;;-3.00;99.90;;;;;;5030310;28;20065;-63
2021/12/11 04:37:23;;;;;;;41.20;18.45;;;-3.00;99.90;;;;;;5030258;28;20090;-63
2021/12/11 04:39:57;;;;;;;30.13;15.35;;;-2.90;99.90;;;;;;5029930;28;20092;-62
2021/12/11 04:43:09;;;;;;;24.50;12.35;;;-2.90;99.90;;;;;;5030036;28;20099;-63
2021/12/11 04:45:17;;;;;;;31.20;15.45;;;-3.00;99.90;;;;;;5019324;28;20110;-63
2021/12/11 04:47:51;;;;;;;24.60;12.60;;;-3.10;99.90;;;;;;5030112;28;20045;-63
2021/12/11 04:50:36;;;;;;;35.28;16.80;;;-3.10;99.90;;;;;;5029748;28;20053;-63
2021/12/11 04:53:08;;;;;;;28.98;13.18;;;-3.00;99.90;;;;;;5029942;28;20037;-63
2021/12/11 04:56:01;;;;;;;48.63;20.67;;;-3.10;99.90;;;;;;5030149;28;20102;-63
2021/12/11 05:11:10;;;;;;;51.83;21.33;;;-2.70;99.90;;;;;;5029492;28;20062;-63
2021/12/11 05:13:36;;;;;;;57.92;23.98;;;-2.60;99.90;;;;;;5039075;22;20499;-59
2021/12/11 05:16:06;;;;;;;61.08;24.00;;;-2.50;99.90;;;;;;5009996;28;20030;-61
2021/12/11 05:18:33;;;;;;;54.00;22.92;;;-2.40;99.90;;;;;;5009901;28;20038;-60
2021/12/11 05:21:04;;;;;;;54.88;22.75;;;-2.40;99.90;;;;;;5010059;28;20037;-61
2021/12/11 05:23:31;;;;;;;56.65;23.50;;;-2.40;99.90;;;;;;5013654;28;20140;-61
2021/12/11 05:25:57;;;;;;;62.72;25.33;;;-2.40;99.90;;;;;;5014120;28;20081;-61
2021/12/11 05:28:23;;;;;;;55.45;24.05;;;-2.30;99.90;;;;;;5013980;28;20077;-61
2021/12/11 05:30:51;;;;;;;59.00;24.15;;;-2.30;99.90;;;;;;5014054;28;20041;-61
2021/12/11 05:33:19;;;;;;;55.78;23.20;;;-2.30;99.90;;;;;;5033101;28;20099;-61
2021/12/11 05:35:46;;;;;;;41.55;19.00;;;-2.30;99.90;;;;;;5016084;28;20568;-61
2021/12/11 05:38:13;;;;;;;34.58;16.60;;;-2.50;99.90;;;;;;5033168;28;20042;-61
2021/12/11 05:40:43;;;;;;;33.58;17.48;;;-2.60;99.90;;;;;;5015756;28;20451;-61
2021/12/11 05:43:09;;;;;;;33.00;16.52;;;-2.70;99.90;;;;;;5033474;28;20041;-61
2021/12/11 05:45:35;;;;;;;30.63;15.93;;;-2.80;99.90;;;;;;5033438;28;20046;-62
2021/12/11 05:48:02;;;;;;;42.72;20.10;;;-2.90;99.90;;;;;;5033191;28;20052;-62
2021/12/11 05:50:33;;;;;;;41.53;19.40;;;-2.90;99.90;;;;;;5032978;28;20499;-61
2021/12/11 05:52:59;;;;;;;49.05;22.50;;;-2.80;99.90;;;;;;5033240;28;20818;-62
2021/12/11 05:55:26;;;;;;;50.83;21.23;;;-2.80;99.90;;;;;;5033348;28;20041;-61
2021/12/11 05:57:56;;;;;;;49.22;24.05;;;-2.70;99.90;;;;;;5033133;28;20043;-61
2021/12/11 06:00:28;;;;;;;59.53;22.63;;;-2.70;99.90;;;;;;5033055;28;20051;-62
2021/12/11 06:02:54;;;;;;;45.45;20.88;;;-2.60;99.90;;;;;;5032743;28;20046;-61
2021/12/11 06:05:20;;;;;;;39.78;20.52;;;-2.70;99.90;;;;;;5032869;28;20045;-61
2021/12/11 06:07:45;;;;;;;42.78;19.70;;;-2.70;99.90;;;;;;5033029;28;20515;-61
2021/12/11 06:10:16;;;;;;;31.63;15.60;;;-2.70;99.90;;;;;;5032880;28;20040;-62
2021/12/11 06:12:43;;;;;;;34.87;16.00;;;-3.10;99.90;;;;;;5032527;28;20044;-61
2021/12/11 06:15:09;;;;;;;42.85;18.95;;;-3.30;99.90;;;;;;5032939;28;20264;-61
2021/12/11 06:17:36;;;;;;;47.30;21.25;;;-3.20;99.90;;;;;;5032460;28;20098;-62
2021/12/11 06:20:06;;;;;;;44.25;20.40;;;-3.10;99.90;;;;;;5032815;28;20057;-61
2021/12/11 06:22:34;;;;;;;45.78;21.65;;;-3.00;99.90;;;;;;5032271;28;20029;-62
2021/12/11 06:25:07;;;;;;;45.35;21.35;;;-2.90;99.90;;;;;;5032830;28;20044;-61
2021/12/11 06:27:33;;;;;;;50.90;22.67;;;-2.90;99.90;;;;;;5032561;28;20038;-61
2021/12/11 06:29:59;;;;;;;48.97;22.45;;;-2.80;99.90;;;;;;5032382;28;20218;-61
2021/12/11 06:32:26;;;;;;;48.78;21.40;;;-2.80;99.90;;;;;;5014320;28;20146;-62
2021/12/11 06:34:54;;;;;;;49.33;23.98;;;-2.80;99.90;;;;;;5031802;28;20040;-62
2021/12/11 06:37:21;;;;;;;48.33;22.70;;;-2.70;99.90;;;;;;5014471;28;20049;-61
2021/12/11 06:39:48;;;;;;;50.53;22.38;;;-2.70;99.90;;;;;;5032230;28;20408;-62
2021/12/11 06:42:16;;;;;;;56.05;23.70;;;-2.70;99.90;;;;;;5031898;28;20041;-60
2021/12/11 06:44:42;;;;;;;63.80;25.65;;;-2.70;99.90;;;;;;5032148;28;20041;-62
2021/12/11 06:47:10;;;;;;;67.15;26.17;;;-2.60;99.90;;;;;;5032431;28;20056;-62
2021/12/11 06:49:39;;;;;;;53.92;23.98;;;-2.50;99.90;;;;;;5032171;28;20068;-62
2021/12/11 06:52:09;;;;;;;53.67;24.23;;;-2.50;99.90;;;;;;5031912;28;20160;-61
2021/12/11 06:54:35;;;;;;;58.42;24.92;;;-2.50;99.90;;;;;;5032210;28;20075;-61
2021/12/11 06:57:01;;;;;;;69.43;25.85;;;-2.50;99.90;;;;;;5032046;28;20042;-62
2021/12/11 06:59:27;;;;;;;61.33;25.42;;;-2.50;99.90;;;;;;5014222;28;20056;-61
2021/12/11 07:01:53;;;;;;;52.45;23.70;;;-2.40;99.90;;;;;;5031799;28;20041;-62
2021/12/11 07:04:19;;;;;;;41.17;18.27;;;-2.50;99.90;;;;;;5032238;28;20034;-61
2021/12/11 07:06:48;;;;;;;39.08;19.33;;;-2.80;99.90;;;;;;5031918;28;20403;-61
2021/12/11 07:09:15;;;;;;;42.88;19.33;;;-3.00;99.90;;;;;;5031662;28;20120;-61
2021/12/11 07:11:44;;;;;;;176.73;25.88;;;-3.20;99.90;;;;;;5031341;28;20037;-61
2021/12/11 07:14:12;;;;;;;320.98;28.90;;;-3.20;99.90;;;;;;5031758;28;20052;-62
2021/12/11 07:16:38;;;;;;;96.07;21.40;;;-3.20;99.90;;;;;;5031500;28;20491;-60
2021/12/11 07:19:05;;;;;;;74.18;17.63;;;-3.20;99.90;;;;;;5031538;28;20053;-62
2021/12/11 07:21:31;;;;;;;83.63;19.60;;;-3.20;99.90;;;;;;5031396;28;20049;-61
2021/12/11 07:23:56;;;;;;;38.70;18.75;;;-3.00;99.90;;;;;;5031426;28;20093;-61
2021/12/11 07:26:31;;;;;;;91.32;23.73;;;-3.00;99.90;;;;;;5031354;28;20045;-61
2021/12/11 07:29:02;;;;;;;59.03;23.08;;;-3.00;99.90;;;;;;5031509;28;20067;-61
2021/12/11 07:31:28;;;;;;;54.28;23.63;;;-2.90;99.90;;;;;;5031279;28;20068;-62
2021/12/11 07:33:53;;;;;;;42.53;19.73;;;-2.80;99.90;;;;;;5013361;28;20480;-62
2021/12/11 07:36:21;;;;;;;43.20;20.52;;;-2.80;99.90;;;;;;5031409;28;20033;-62
2021/12/11 07:38:47;;;;;;;46.80;20.58;;;-2.80;99.90;;;;;;5012997;28;20042;-61
2021/12/11 07:41:13;;;;;;;48.05;21.40;;;-2.90;99.90;;;;;;5028200;28;20403;-61
2021/12/11 07:43:41;;;;;;;46.22;21.67;;;-2.90;99.90;;;;;;5028149;28;20108;-62
2021/12/11 07:46:09;;;;;;;55.25;22.45;;;-2.90;99.90;;;;;;5030911;28;20095;-62
2021/12/11 07:48:35;;;;;;;52.13;22.27;;;-2.90;99.90;;;;;;5031111;28;20046;-62
2021/12/11 07:51:01;;;;;;;55.95;22.02;;;-2.90;99.90;;;;;;5030795;28;20052;-61
2021/12/11 07:53:27;;;;;;;93.35;25.92;;;-2.90;99.90;;;;;;5030399;28;20045;-61
2021/12/11 07:55:53;;;;;;;66.80;24.63;;;-2.90;99.90;;;;;;5013258;28;20554;-61
2021/12/11 07:58:20;;;;;;;68.70;25.92;;;-2.90;99.90;;;;;;5030979;28;20041;-62
2021/12/11 08:00:47;;;;;;;62.15;24.58;;;-2.90;99.90;;;;;;5030630;28;20047;-61
2021/12/11 08:03:15;;;;;;;57.60;23.38;;;-2.90;99.90;;;;;;5030438;28;20037;-62
2021/12/11 08:05:43;;;;;;;59.53;23.10;;;-2.90;99.90;;;;;;5013062;28;20088;-61
2021/12/11 08:08:10;;;;;;;67.55;24.65;;;-3.00;99.90;;;;;;5030488;28;20039;-60
2021/12/11 08:10:38;;;;;;;66.40;26.10;;;-3.10;99.90;;;;;;5012802;28;20408;-62
2021/12/11 08:13:06;;;;;;;54.20;22.83;;;-3.10;99.90;;;;;;5030201;28;20050;-62
2021/12/11 08:15:32;;;;;;;62.22;24.33;;;-3.20;99.90;;;;;;5030454;28;20038;-62
2021/12/11 08:17:58;;;;;;;60.83;24.55;;;-3.10;99.90;;;;;;5030703;28;20488;-62
2021/12/11 08:20:28;;;;;;;58.10;24.48;;;-3.10;99.90;;;;;;5030448;28;20479;-61
2021/12/11 08:22:56;;;;;;;60.13;24.63;;;-3.10;99.90;;;;;;5029985;28;20137;-61
2021/12/11 08:25:25;;;;;;;55.25;23.40;;;-3.00;99.90;;;;;;5012861;28;20041;-62
2021/12/11 08:27:52;;;;;;;50.50;22.98;;;-3.00;99.90;;;;;;5030471;28;20076;-62
2021/12/11 08:30:18;;;;;;;63.60;25.55;;;-2.90;99.90;;;;;;5030129;28;20583;-62
2021/12/11 08:32:43;;;;;;;72.03;28.45;;;-2.90;99.90;;;;;;5029842;28;20091;-61
2021/12/11 08:35:11;;;;;;;79.82;30.10;;;-2.90;99.90;;;;;;5029956;28;20559;-62
2021/12/11 08:37:40;;;;;;;72.85;29.13;;;-3.00;99.90;;;;;;5030426;28;20037;-61
2021/12/11 08:40:10;;;;;;;76.93;28.40;;;-3.00;99.90;;;;;;5030253;28;20081;-62
2021/12/11 08:42:39;;;;;;;67.43;27.52;;;-3.00;99.90;;;;;;5029805;28;20045;-62
2021/12/11 08:45:09;;;;;;;74.43;28.05;;;-3.00;99.90;;;;;;5030026;28;20160;-62
2021/12/11 08:47:39;;;;;;;52.30;24.27;;;-3.00;99.90;;;;;;5029743;28;20048;-61
2021/12/11 08:50:11;;;;;;;56.38;23.35;;;-2.80;99.90;;;;;;5029974;28;20589;-62
2021/12/11 08:52:40;;;;;;;53.45;23.20;;;-2.70;99.90;;;;;;5029798;28;20503;-61
2021/12/11 08:55:10;;;;;;;56.05;24.83;;;-2.50;99.90;;;;;;5029921;28;20083;-61
2021/12/11 08:57:39;;;;;;;52.65;24.60;;;-2.40;99.90;;;;;;5029266;28;20037;-61
2021/12/11 09:00:19;;;;;;;54.22;24.85;;;-2.30;99.90;;;;;;5028940;28;20060;-61
2021/12/11 09:03:00;;;;;;;61.83;26.33;;;-2.20;99.90;;;;;;5029648;28;20041;-62
2021/12/11 09:05:34;;;;;;;61.22;27.23;;;-2.10;99.90;;;;;;5030002;28;20041;-61
2021/12/11 09:08:12;;;;;;;73.65;30.23;;;-1.80;99.90;;;;;;5029611;28;20579;-61
2021/12/11 09:10:59;;;;;;;71.95;29.38;;;-1.70;99.90;;;;;;5011684;28;20050;-62
2021/12/11 09:13:35;;;;;;;74.57;28.95;;;-1.50;99.90;;;;;;5029358;28;20037;-61
2021/12/11 09:16:39;;;;;;;73.10;30.88;;;-1.40;99.90;;;;;;5029911;28;20112;-62
2021/12/11 09:19:12;;;;;;;71.70;28.85;;;-1.30;99.90;;;;;;5025346;28;20104;-61
2021/12/11 09:21:42;;;;;;;74.50;30.98;;;-1.20;99.90;;;;;;5029761;28;20045;-61
2021/12/11 09:24:23;;;;;;;79.05;33.47;;;-1.10;99.90;;;;;;5029576;28;20424;-62
2021/12/11 09:27:05;;;;;;;80.03;34.50;;;-1.00;99.90;;;;;;5011951;28;20041;-62
2021/12/11 09:30:05;;;;;;;81.72;35.42;;;-0.80;99.90;;;;;;5029486;28;20042;-61
2021/12/11 09:32:36;;;;;;;87.13;37.15;;;-0.80;99.90;;;;;;5007021;28;20041;-61
2021/12/11 09:35:13;;;;;;;;;;;-0.70;99.90;;;;;;5029241;28;20065;-61
2021/12/11 09:37:40;;;;;;;79.68;35.10;;;-0.60;99.90;;;;;;5028179;28;20288;-61
2021/12/11 09:40:15;;;;;;;83.28;36.55;;;-0.60;99.90;;;;;;5028575;28;20723;-61
2021/12/11 09:42:41;;;;;;;86.47;36.22;;;-0.50;99.90;;;;;;5028345;28;20607;-61
2021/12/11 09:45:15;;;;;;;82.82;37.22;;;-0.50;99.90;;;;;;5011213;28;20049;-62
2021/12/11 09:47:50;;;;;;;82.60;36.50;;;-0.30;99.90;;;;;;5028801;28;20038;-61
2021/12/11 09:50:22;;;;;;;84.95;35.85;;;-0.30;99.90;;;;;;5029177;28;20052;-61
2021/12/11 09:52:49;;;;;;;85.60;36.90;;;-0.30;99.90;;;;;;5011564;28;20055;-62
2021/12/11 09:55:22;;;;;;;88.90;39.45;;;-0.20;99.90;;;;;;5029222;28;20426;-61
2021/12/11 09:57:54;;;;;;;91.20;41.53;;;-0.20;99.90;;;;;;5029447;28;20053;-61
2021/12/11 10:00:30;;;;;;;83.22;37.75;;;-0.10;99.90;;;;;;5029333;28;20042;-61
2021/12/11 10:02:56;;;;;;;98.40;43.35;;;-0.10;99.90;;;;;;5029069;28;20069;-62
2021/12/11 10:05:55;;;;;;;89.43;40.72;;;0.00;99.90;;;;;;5029373;28;20041;-61
2021/12/11 10:11:15;;;;;;;92.63;41.63;;;0.10;99.90;;;;;;5032570;28;20046;-62
2021/12/11 10:13:46;;;;;;;103.78;44.90;;;0.10;99.90;;;;;;5032270;28;20400;-61
2021/12/11 10:16:13;;;;;;;88.82;42.25;;;0.20;99.90;;;;;;5032193;28;20033;-62
2021/12/11 10:18:39;;;;;;;95.88;42.20;;;0.30;99.90;;;;;;5031266;28;20043;-60
2021/12/11 10:21:08;;;;;;;106.75;47.75;;;0.40;99.90;;;;;;5031356;28;20629;-61
2021/12/11 10:23:36;;;;;;;119.25;53.08;;;0.40;99.90;;;;;;5030747;28;20065;-62
2021/12/11 10:26:10;;;;;;;118.55;54.92;;;0.50;99.90;;;;;;5031639;28;20049;-61
2021/12/11 10:28:39;;;;;;;101.97;44.40;;;0.50;99.90;;;;;;5014781;28;20044;-61
2021/12/11 10:31:09;;;;;;;96.88;43.53;;;0.60;99.90;;;;;;5032322;28;20041;-61
2021/12/11 10:33:35;;;;;;;88.03;40.13;;;0.60;99.90;;;;;;5031991;28;20029;-61
2021/12/11 10:36:15;;;;;;;93.20;42.03;;;0.70;99.90;;;;;;5031673;28;20653;-61
2021/12/11 10:38:42;;;;;;;87.30;39.65;;;0.80;99.90;;;;;;5031911;28;20044;-61
2021/12/11 10:41:12;;;;;;;93.15;41.95;;;0.80;99.90;;;;;;5031017;28;20121;-61
2021/12/11 10:43:45;;;;;;;85.43;40.80;;;0.90;99.90;;;;;;5031836;28;20038;-61
2021/12/11 10:46:14;;;;;;;82.00;38.78;;;0.90;99.90;;;;;;5032152;28;20045;-61
2021/12/11 10:48:42;;;;;;;88.05;37.35;;;1.00;99.90;;;;;;5031938;28;20081;-62
2021/12/11 10:51:18;;;;;;;81.70;38.55;;;1.00;99.90;;;;;;5032340;28;20053;-61
2021/12/11 10:53:47;;;;;;;79.93;38.08;;;1.10;99.90;;;;;;5031852;28;20108;-61
2021/12/11 10:56:15;;;;;;;85.22;38.08;;;1.20;99.90;;;;;;5032021;28;20099;-62
2021/12/11 10:58:48;;;;;;;100.25;43.10;;;1.20;99.90;;;;;;5031893;28;20033;-62
2021/12/11 11:01:19;;;;;;;131.73;57.42;;;1.30;99.90;;;;;;5031889;28;20391;-61
2021/12/11 11:03:55;;;;;;;98.45;48.30;;;1.30;99.90;;;;;;5031701;28;20048;-63
2021/12/11 11:06:21;;;;;;;87.25;40.97;;;1.40;99.90;;;;;;5031875;28;20041;-59
2021/12/11 11:08:47;;;;;;;82.70;36.63;;;1.50;99.90;;;;;;5031790;28;20049;-61
2021/12/11 11:11:17;;;;;;;70.78;34.97;;;1.50;99.90;;;;;;5031777;28;20050;-60
2021/12/11 11:13:45;;;;;;;80.53;35.80;;;1.50;99.90;;;;;;5015453;28;20056;-59
2021/12/11 11:16:13;;;;;;;69.63;34.13;;;1.60;99.90;;;;;;4994464;28;20649;-60
2021/12/11 11:18:39;;;;;;;72.75;35.22;;;1.60;99.90;;;;;;5011597;28;20042;-60
2021/12/11 11:21:12;;;;;;;79.70;34.08;;;1.70;99.90;;;;;;5011490;28;20044;-60
2021/12/11 11:23:40;;;;;;;74.90;35.58;;;1.70;99.90;;;;;;5011736;28;20157;-59
2021/12/11 11:26:10;;;;;;;74.97;35.97;;;1.70;99.90;;;;;;5011547;28;20050;-59
2021/12/11 11:28:36;;;;;;;69.15;34.40;;;1.80;99.90;;;;;;5011553;28;20573;-59
2021/12/11 11:31:09;;;;;;;72.70;35.95;;;1.90;99.90;;;;;;5012440;28;20108;-59
2021/12/11 11:33:35;;;;;;;64.35;34.30;;;1.80;99.90;;;;;;5031364;28;20107;-60
2021/12/11 11:36:04;;;;;;;73.47;35.30;;;1.90;99.90;;;;;;5031444;28;20096;-59
2021/12/11 11:38:33;;;;;;;71.97;35.63;;;1.90;99.90;;;;;;5031052;28;20044;-59
2021/12/11 11:41:07;;;;;;;74.45;39.38;;;2.00;99.90;;;;;;5031066;28;20515;-59
2021/12/11 11:43:33;;;;;;;71.55;34.53;;;2.10;99.90;;;;;;5030874;28;20475;-58
2021/12/11 11:45:59;;;;;;;78.35;38.90;;;2.10;99.90;;;;;;5013326;28;20152;-58
2021/12/11 11:48:29;;;;;;;75.97;38.33;;;2.20;99.90;;;;;;5030984;28;20550;-57
2021/12/11 11:50:59;;;;;;;74.47;37.05;;;2.20;99.90;;;;;;5030904;28;20041;-60
2021/12/11 11:53:28;;;;;;;75.65;37.10;;;2.20;99.90;;;;;;5030603;28;20099;-59
2021/12/11 11:55:58;;;;;;;82.68;38.42;;;2.30;99.90;;;;;;5031097;28;20117;-62
2021/12/11 11:58:27;;;;;;;82.38;39.20;;;2.30;99.90;;;;;;5031279;28;20444;-60
2021/12/11 12:01:02;;;;;;;74.40;36.67;;;2.40;99.90;;;;;;5019328;28;20092;-59
2021/12/11 12:03:29;;;;;;;77.72;38.63;;;2.50;99.90;;;;;;4992868;28;20046;-60
2021/12/11 12:06:03;;;;;;;69.90;38.10;;;2.50;99.90;;;;;;5011076;28;20068;-59
2021/12/11 12:08:29;;;;;;;76.60;39.55;;;2.50;99.90;;;;;;5010779;28;20566;-59
2021/12/11 12:10:57;;;;;;;77.63;39.72;;;2.60;99.90;;;;;;5010671;28;20034;-59
2021/12/11 12:13:26;;;;;;;73.97;39.47;;;2.60;99.90;;;;;;5010475;28;20038;-59
2021/12/11 12:15:56;;;;;;;72.45;40.00;;;2.60;99.90;;;;;;5009919;28;20117;-59
2021/12/11 12:18:22;;;;;;;80.13;39.90;;;2.60;99.90;;;;;;5010654;28;20657;-59
2021/12/11 12:20:49;;;;;;;83.90;37.60;;;2.70;99.90;;;;;;5010872;28;20046;-59
2021/12/11 12:23:18;;;;;;;75.82;36.38;;;2.70;99.90;;;;;;5010073;28;20057;-59
2021/12/11 12:25:47;;;;;;;87.68;39.63;;;2.70;99.90;;;;;;4992945;28;20049;-58
2021/12/11 12:28:13;;;;;;;75.57;36.78;;;2.80;99.90;;;;;;5010153;28;20052;-59
2021/12/11 12:31:04;;;;;;;72.53;34.95;;;2.90;99.90;;;;;;4991937;28;20038;-60
2021/12/11 12:33:30;;;;;;;63.88;31.35;;;2.90;99.90;;;;;;4985119;28;20575;-59
2021/12/11 12:35:56;;;;;;;78.18;39.50;;;2.90;99.90;;;;;;4976548;28;20038;-59
2021/12/11 12:38:24;;;;;;;74.85;37.55;;;2.90;99.90;;;;;;5010294;28;20045;-59
2021/12/11 12:41:00;;;;;;;81.95;39.13;;;3.00;99.90;;;;;;5010180;28;20410;-58
2021/12/11 12:46:16;;;;;;;77.13;38.13;;;3.00;99.90;;;;;;5009985;28;20116;-58
2021/12/11 12:48:41;;;;;;;81.82;39.35;;;3.10;99.90;;;;;;5003951;28;20622;-59
2021/12/11 12:51:10;;;;;;;76.22;39.00;;;3.20;99.90;;;;;;5009780;28;20042;-58
2021/12/11 12:53:39;;;;;;;73.20;35.63;;;3.20;99.90;;;;;;5009917;28;20061;-59
2021/12/11 12:56:12;;;;;;;81.45;38.75;;;3.10;99.90;;;;;;5010180;28;20539;-58
2021/12/11 12:58:56;;;;;;;79.30;37.83;;;3.10;99.90;;;;;;5010238;28;20041;-57
2021/12/11 13:01:33;;;;;;;65.38;34.95;;;3.10;99.90;;;;;;5010257;28;20046;-58
2021/12/11 13:04:05;;;;;;;70.68;38.53;;;3.10;99.90;;;;;;4992365;28;20073;-58
2021/12/11 13:06:37;;;;;;;75.00;39.60;;;3.10;99.90;;;;;;5010114;28;20046;-58